createdAt,value
2018-12-15T00:00:05.317Z,0
2018-12-15T00:00:45.864Z,0
2018-12-15T00:01:27.549Z,0
2018-12-15T00:02:08.026Z,0
2018-12-15T00:02:48.597Z,0
2018-12-15T00:03:29.146Z,0
2018-12-15T00:04:09.701Z,0
2018-12-15T00:04:50.253Z,0
2018-12-15T00:05:30.830Z,0
2018-12-15T00:06:11.394Z,0
2018-12-15T00:06:51.950Z,0
2018-12-15T00:07:32.512Z,0
2018-12-15T00:08:13.069Z,0
2018-12-15T00:08:53.612Z,0
2018-12-15T00:09:34.177Z,0
2018-12-15T00:10:14.737Z,0
2018-12-15T00:10:55.310Z,0
2018-12-15T00:11:35.862Z,0
2018-12-15T00:12:16.418Z,0
2018-12-15T00:12:56.996Z,0
2018-12-15T00:13:37.548Z,0
2018-12-15T00:14:18.102Z,0
2018-12-15T00:14:58.668Z,0
2018-12-15T00:15:39.224Z,0
2018-12-15T00:16:19.784Z,0
2018-12-15T00:17:05.627Z,0
2018-12-15T00:17:40.893Z,0
2018-12-15T00:18:21.462Z,0
2018-12-15T00:19:02.004Z,0
2018-12-15T00:19:42.563Z,0
2018-12-15T00:20:23.116Z,0
2018-12-15T00:21:03.759Z,0
2018-12-15T00:21:44.384Z,0
2018-12-15T00:22:24.935Z,0
2018-12-15T00:23:05.504Z,0
2018-12-15T00:23:46.051Z,0
2018-12-15T00:24:26.603Z,0
2018-12-15T00:25:07.149Z,0
2018-12-15T00:25:47.834Z,0
2018-12-15T00:26:28.330Z,0
2018-12-15T00:27:08.895Z,0
2018-12-15T00:27:49.449Z,0
2018-12-15T00:28:30.007Z,0
2018-12-15T00:29:10.564Z,0
2018-12-15T00:29:51.123Z,0
2018-12-15T00:30:31.688Z,0
2018-12-15T00:31:12.240Z,0
2018-12-15T00:31:52.788Z,0
2018-12-15T00:32:33.331Z,0
2018-12-15T00:33:13.938Z,0
2018-12-15T00:33:54.495Z,0
2018-12-15T00:34:35.049Z,0
2018-12-15T00:35:15.601Z,0
2018-12-15T00:35:56.157Z,0
2018-12-15T00:36:36.711Z,0
2018-12-15T00:37:17.271Z,0
2018-12-15T00:37:57.826Z,0
2018-12-15T00:38:38.387Z,0
2018-12-15T00:39:18.937Z,0
2018-12-15T00:39:59.489Z,0
2018-12-15T00:40:40.043Z,0
2018-12-15T00:41:20.590Z,0
2018-12-15T00:42:01.162Z,0
2018-12-15T00:42:41.716Z,0
2018-12-15T00:43:22.286Z,0
2018-12-15T00:44:02.841Z,0
2018-12-15T00:44:43.414Z,0
2018-12-15T00:45:23.982Z,0
2018-12-15T00:46:04.524Z,0
2018-12-15T00:46:45.074Z,0
2018-12-15T00:47:25.617Z,0
2018-12-15T00:48:06.179Z,0
2018-12-15T00:48:46.723Z,0
2018-12-15T00:49:27.296Z,0
2018-12-15T00:50:07.844Z,0
2018-12-15T00:50:48.394Z,0
2018-12-15T00:51:28.942Z,0
2018-12-15T00:52:09.528Z,0
2018-12-15T00:52:50.107Z,0
2018-12-15T00:53:30.673Z,0
2018-12-15T00:54:11.242Z,0
2018-12-15T00:54:51.783Z,0
2018-12-15T00:55:32.342Z,0
2018-12-15T00:56:12.895Z,0
2018-12-15T00:56:53.449Z,0
2018-12-15T00:57:34.001Z,0
2018-12-15T00:58:14.577Z,0
2018-12-15T00:58:55.127Z,0
2018-12-15T00:59:35.686Z,0
2018-12-15T01:00:16.245Z,0
2018-12-15T01:00:56.806Z,0
2018-12-15T01:01:37.366Z,0
2018-12-15T01:02:17.916Z,0
2018-12-15T01:02:58.480Z,0
2018-12-15T01:03:39.047Z,0
2018-12-15T01:04:19.596Z,0
2018-12-15T01:05:00.149Z,0
2018-12-15T01:05:40.700Z,0
2018-12-15T01:06:21.252Z,0
2018-12-15T01:07:01.806Z,0
2018-12-15T01:07:42.355Z,0
2018-12-15T01:08:22.922Z,0
2018-12-15T01:09:03.485Z,0
2018-12-15T01:09:44.030Z,0
2018-12-15T01:10:24.585Z,0
2018-12-15T01:11:05.155Z,0
2018-12-15T01:11:45.693Z,0
2018-12-15T01:12:26.255Z,0
2018-12-15T01:13:06.812Z,0
2018-12-15T01:13:47.369Z,0
2018-12-15T01:14:27.916Z,0
2018-12-15T01:15:08.536Z,0
2018-12-15T01:15:49.087Z,0
2018-12-15T01:16:29.647Z,0
2018-12-15T01:17:10.239Z,0
2018-12-15T01:17:50.785Z,0
2018-12-15T01:18:31.365Z,0
2018-12-15T01:19:11.922Z,0
2018-12-15T01:19:52.477Z,0
2018-12-15T01:20:33.033Z,0
2018-12-15T01:21:13.592Z,0
2018-12-15T01:21:54.143Z,0
2018-12-15T01:22:34.697Z,0
2018-12-15T01:23:15.251Z,0
2018-12-15T01:23:55.824Z,0
2018-12-15T01:24:36.386Z,0
2018-12-15T01:25:16.943Z,0
2018-12-15T01:25:57.487Z,0
2018-12-15T01:26:38.047Z,0
2018-12-15T01:27:18.598Z,0
2018-12-15T01:27:59.159Z,0
2018-12-15T01:28:39.715Z,0
2018-12-15T01:29:20.302Z,0
2018-12-15T01:30:00.855Z,0
2018-12-15T01:30:41.407Z,0
2018-12-15T01:31:21.956Z,0
2018-12-15T01:32:02.505Z,0
2018-12-15T01:32:43.071Z,0
2018-12-15T01:33:23.874Z,0
2018-12-15T01:34:04.428Z,0
2018-12-15T01:34:44.980Z,0
2018-12-15T01:35:25.539Z,0
2018-12-15T01:36:06.097Z,0
2018-12-15T01:36:46.645Z,0
2018-12-15T01:37:27.203Z,0
2018-12-15T01:38:07.749Z,0
2018-12-15T01:38:48.302Z,0
2018-12-15T01:39:28.859Z,0
2018-12-15T01:40:09.429Z,0
2018-12-15T01:40:49.965Z,0
2018-12-15T01:41:30.553Z,0
2018-12-15T01:42:11.127Z,0
2018-12-15T01:42:51.679Z,0
2018-12-15T01:43:32.239Z,0
2018-12-15T01:44:12.802Z,0
2018-12-15T01:44:53.361Z,0
2018-12-15T01:45:33.914Z,0
2018-12-15T01:46:14.478Z,0
2018-12-15T01:46:55.040Z,0
2018-12-15T01:47:35.608Z,0
2018-12-15T01:48:16.163Z,0
2018-12-15T01:48:56.721Z,0
2018-12-15T01:49:37.273Z,0
2018-12-15T01:50:17.843Z,0
2018-12-15T01:50:58.418Z,0
2018-12-15T01:51:38.978Z,0
2018-12-15T01:52:19.524Z,0
2018-12-15T01:53:00.156Z,0
2018-12-15T01:53:40.701Z,0
2018-12-15T01:54:21.265Z,0
2018-12-15T01:55:01.819Z,0
2018-12-15T01:55:42.374Z,0
2018-12-15T01:56:22.925Z,0
2018-12-15T01:57:03.471Z,0
2018-12-15T01:57:44.036Z,0
2018-12-15T01:58:24.590Z,0
2018-12-15T01:59:05.127Z,0
2018-12-15T01:59:45.679Z,0
2018-12-15T02:00:26.258Z,0
2018-12-15T02:01:06.810Z,0
2018-12-15T02:01:47.384Z,0
2018-12-15T02:02:27.936Z,0
2018-12-15T02:03:08.496Z,0
2018-12-15T02:03:49.057Z,0
2018-12-15T02:04:29.610Z,0
2018-12-15T02:05:10.165Z,0
2018-12-15T02:05:50.721Z,0
2018-12-15T02:06:31.284Z,0
2018-12-15T02:07:11.836Z,0
2018-12-15T02:07:52.391Z,0
2018-12-15T02:08:32.957Z,0
2018-12-15T02:09:13.532Z,0
2018-12-15T02:09:54.080Z,0
2018-12-15T02:10:34.646Z,0
2018-12-15T02:11:15.217Z,0
2018-12-15T02:11:55.781Z,0
2018-12-15T02:12:36.347Z,0
2018-12-15T02:13:16.925Z,0
2018-12-15T02:13:57.477Z,0
2018-12-15T02:14:38.023Z,0
2018-12-15T02:15:18.579Z,0
2018-12-15T02:15:59.143Z,0
2018-12-15T02:16:39.677Z,0
2018-12-15T02:17:20.230Z,0
2018-12-15T02:18:00.795Z,0
2018-12-15T02:18:41.358Z,0
2018-12-15T02:19:21.908Z,0
2018-12-15T02:20:02.470Z,0
2018-12-15T02:20:43.016Z,0
2018-12-15T02:21:23.579Z,0
2018-12-15T02:22:04.141Z,0
2018-12-15T02:22:44.693Z,0
2018-12-15T02:23:25.257Z,0
2018-12-15T02:24:05.818Z,0
2018-12-15T02:24:46.379Z,0
2018-12-15T02:25:26.940Z,0
2018-12-15T02:26:07.498Z,0
2018-12-15T02:26:48.042Z,0
2018-12-15T02:27:28.599Z,0
2018-12-15T02:28:09.163Z,0
2018-12-15T02:28:49.720Z,0
2018-12-15T02:29:30.285Z,0
2018-12-15T02:30:10.844Z,0
2018-12-15T02:30:51.392Z,0
2018-12-15T02:31:31.975Z,0
2018-12-15T02:32:12.541Z,0
2018-12-15T02:32:53.334Z,0
2018-12-15T02:33:33.900Z,0
2018-12-15T02:34:14.450Z,0
2018-12-15T02:34:55.008Z,0
2018-12-15T02:35:35.566Z,0
2018-12-15T02:36:16.124Z,0
2018-12-15T02:36:56.682Z,0
2018-12-15T02:37:37.263Z,0
2018-12-15T02:38:17.794Z,0
2018-12-15T02:38:58.377Z,0
2018-12-15T02:39:38.936Z,0
2018-12-15T02:40:19.505Z,0
2018-12-15T02:41:00.052Z,0
2018-12-15T02:41:47.003Z,0
2018-12-15T02:42:21.165Z,0
2018-12-15T02:43:01.717Z,0
2018-12-15T02:43:42.284Z,0
2018-12-15T02:44:22.849Z,0
2018-12-15T02:45:03.408Z,0
2018-12-15T02:45:43.954Z,0
2018-12-15T02:46:24.505Z,0
2018-12-15T02:47:05.060Z,0
2018-12-15T02:47:45.615Z,0
2018-12-15T02:48:26.165Z,0
2018-12-15T02:49:06.717Z,0
2018-12-15T02:49:47.279Z,0
2018-12-15T02:50:27.827Z,0
2018-12-15T02:51:08.381Z,0
2018-12-15T02:51:48.940Z,0
2018-12-15T02:52:29.496Z,0
2018-12-15T02:53:10.052Z,0
2018-12-15T02:53:50.599Z,0
2018-12-15T02:54:31.153Z,0
2018-12-15T02:55:11.711Z,0
2018-12-15T02:55:52.269Z,0
2018-12-15T02:56:32.817Z,0
2018-12-15T02:57:13.388Z,0
2018-12-15T02:57:53.949Z,0
2018-12-15T02:58:34.514Z,0
2018-12-15T02:59:15.069Z,0
2018-12-15T02:59:55.625Z,0
2018-12-15T03:00:36.184Z,0
2018-12-15T03:01:16.731Z,0
2018-12-15T03:01:57.288Z,0
2018-12-15T03:02:37.862Z,0
2018-12-15T03:03:18.414Z,0
2018-12-15T03:03:58.994Z,0
2018-12-15T03:04:39.553Z,0
2018-12-15T03:05:20.102Z,0
2018-12-15T03:06:00.653Z,0
2018-12-15T03:06:41.222Z,0
2018-12-15T03:07:21.777Z,0
2018-12-15T03:08:02.330Z,0
2018-12-15T03:08:42.886Z,0
2018-12-15T03:09:23.442Z,0
2018-12-15T03:10:04.008Z,0
2018-12-15T03:10:44.565Z,0
2018-12-15T03:11:25.126Z,0
2018-12-15T03:12:05.674Z,0
2018-12-15T03:12:46.243Z,0
2018-12-15T03:13:26.776Z,0
2018-12-15T03:14:07.356Z,0
2018-12-15T03:14:47.924Z,0
2018-12-15T03:15:28.483Z,0
2018-12-15T03:16:09.044Z,0
2018-12-15T03:16:49.599Z,0
2018-12-15T03:17:30.158Z,0
2018-12-15T03:18:10.721Z,0
2018-12-15T03:18:51.277Z,0
2018-12-15T03:19:31.842Z,0
2018-12-15T03:20:12.404Z,0
2018-12-15T03:20:52.960Z,0
2018-12-15T03:21:33.552Z,0
2018-12-15T03:22:14.186Z,0
2018-12-15T03:22:54.693Z,0
2018-12-15T03:23:35.565Z,0
2018-12-15T03:24:15.814Z,0
2018-12-15T03:24:56.367Z,0
2018-12-15T03:25:36.915Z,0
2018-12-15T03:26:17.476Z,0
2018-12-15T03:26:58.034Z,0
2018-12-15T03:27:38.593Z,0
2018-12-15T03:28:19.143Z,0
2018-12-15T03:28:59.703Z,0
2018-12-15T03:29:40.272Z,0
2018-12-15T03:30:20.814Z,0
2018-12-15T03:31:01.395Z,0
2018-12-15T03:31:41.926Z,0
2018-12-15T03:32:22.481Z,0
2018-12-15T03:33:03.022Z,0
2018-12-15T03:33:43.565Z,0
2018-12-15T03:34:24.121Z,0
2018-12-15T03:35:04.676Z,0
2018-12-15T03:35:45.229Z,0
2018-12-15T03:36:25.774Z,0
2018-12-15T03:37:06.324Z,0
2018-12-15T03:37:46.874Z,0
2018-12-15T03:38:27.446Z,0
2018-12-15T03:39:08.002Z,0
2018-12-15T03:39:48.562Z,0
2018-12-15T03:40:29.130Z,0
2018-12-15T03:41:09.690Z,0
2018-12-15T03:41:50.250Z,4
2018-12-15T03:42:30.810Z,4
2018-12-15T03:43:11.381Z,4
2018-12-15T03:43:51.936Z,4
2018-12-15T03:44:32.507Z,4
2018-12-15T03:45:13.067Z,4
2018-12-15T03:45:53.637Z,4
2018-12-15T03:46:34.186Z,4
2018-12-15T03:47:14.759Z,4
2018-12-15T03:47:56.307Z,4
2018-12-15T03:48:35.873Z,4
2018-12-15T03:49:16.428Z,4
2018-12-15T03:49:56.994Z,4
2018-12-15T03:50:37.546Z,4
2018-12-15T03:51:18.095Z,4
2018-12-15T03:51:58.667Z,4
2018-12-15T03:52:39.222Z,4
2018-12-15T03:53:19.780Z,4
2018-12-15T03:54:00.340Z,4
2018-12-15T03:54:40.905Z,4
2018-12-15T03:55:21.463Z,4
2018-12-15T03:56:02.026Z,4
2018-12-15T03:56:42.587Z,4
2018-12-15T03:57:23.158Z,4
2018-12-15T03:58:03.707Z,0
2018-12-15T03:58:44.256Z,4
2018-12-15T03:59:24.828Z,4
2018-12-15T04:00:05.383Z,4
2018-12-15T04:00:45.943Z,4
2018-12-15T04:01:26.503Z,4
2018-12-15T04:02:07.070Z,4
2018-12-15T04:02:47.626Z,4
2018-12-15T04:03:28.184Z,4
2018-12-15T04:04:08.750Z,4
2018-12-15T04:04:49.301Z,4
2018-12-15T04:05:29.845Z,4
2018-12-15T04:06:10.403Z,4
2018-12-15T04:06:50.955Z,4
2018-12-15T04:07:31.522Z,4
2018-12-15T04:08:12.082Z,4
2018-12-15T04:08:52.613Z,4
2018-12-15T04:09:33.186Z,4
2018-12-15T04:10:13.724Z,4
2018-12-15T04:10:54.281Z,4
2018-12-15T04:11:34.822Z,4
2018-12-15T04:12:15.376Z,4
2018-12-15T04:12:55.917Z,4
2018-12-15T04:13:36.498Z,4
2018-12-15T04:14:17.050Z,4
2018-12-15T04:14:57.634Z,4
2018-12-15T04:15:38.189Z,4
2018-12-15T04:16:18.742Z,4
2018-12-15T04:16:59.307Z,4
2018-12-15T04:17:39.904Z,4
2018-12-15T04:18:20.453Z,4
2018-12-15T04:19:01.006Z,4
2018-12-15T04:19:41.572Z,4
2018-12-15T04:20:22.129Z,4
2018-12-15T04:21:02.703Z,4
2018-12-15T04:21:43.264Z,4
2018-12-15T04:22:23.813Z,4
2018-12-15T04:23:04.362Z,4
2018-12-15T04:23:45.018Z,4
2018-12-15T04:24:25.587Z,4
2018-12-15T04:25:06.135Z,4
2018-12-15T04:25:46.713Z,4
2018-12-15T04:26:27.269Z,4
2018-12-15T04:27:07.836Z,4
2018-12-15T04:27:48.402Z,4
2018-12-15T04:28:28.963Z,4
2018-12-15T04:29:09.515Z,4
2018-12-15T04:29:50.065Z,4
2018-12-15T04:30:30.630Z,4
2018-12-15T04:31:11.188Z,4
2018-12-15T04:31:51.747Z,0
2018-12-15T04:32:32.296Z,4
2018-12-15T04:33:13.076Z,4
2018-12-15T04:33:53.618Z,4
2018-12-15T04:34:34.181Z,4
2018-12-15T04:35:14.729Z,4
2018-12-15T04:35:55.272Z,4
2018-12-15T04:36:35.830Z,4
2018-12-15T04:37:16.397Z,4
2018-12-15T04:37:56.971Z,4
2018-12-15T04:38:37.518Z,4
2018-12-15T04:39:18.077Z,4
2018-12-15T04:39:58.625Z,4
2018-12-15T04:40:39.195Z,4
2018-12-15T04:41:19.758Z,4
2018-12-15T04:42:00.309Z,4
2018-12-15T04:42:40.857Z,4
2018-12-15T04:43:21.430Z,4
2018-12-15T04:44:01.969Z,4
2018-12-15T04:44:42.518Z,4
2018-12-15T04:45:23.090Z,4
2018-12-15T04:46:03.669Z,4
2018-12-15T04:46:44.227Z,4
2018-12-15T04:47:24.787Z,4
2018-12-15T04:48:10.966Z,4
2018-12-15T04:48:45.917Z,4
2018-12-15T04:49:26.473Z,4
2018-12-15T04:50:07.015Z,4
2018-12-15T04:50:47.574Z,4
2018-12-15T04:51:28.125Z,4
2018-12-15T04:52:08.688Z,4
2018-12-15T04:52:49.240Z,4
2018-12-15T04:53:29.808Z,4
2018-12-15T04:54:10.360Z,4
2018-12-15T04:54:50.914Z,4
2018-12-15T04:55:31.477Z,4
2018-12-15T04:56:12.044Z,4
2018-12-15T04:56:52.600Z,4
2018-12-15T04:57:33.168Z,4
2018-12-15T04:58:13.731Z,4
2018-12-15T04:58:54.292Z,4
2018-12-15T04:59:34.835Z,4
2018-12-15T05:00:15.414Z,4
2018-12-15T05:00:55.944Z,4
2018-12-15T05:01:36.492Z,4
2018-12-15T05:02:17.068Z,4
2018-12-15T05:02:57.628Z,4
2018-12-15T05:03:38.181Z,4
2018-12-15T05:04:18.725Z,4
2018-12-15T05:04:59.294Z,4
2018-12-15T05:05:39.884Z,4
2018-12-15T05:06:20.429Z,4
2018-12-15T05:07:01.000Z,4
2018-12-15T05:07:41.536Z,4
2018-12-15T05:08:22.091Z,4
2018-12-15T05:09:02.652Z,4
2018-12-15T05:09:43.196Z,4
2018-12-15T05:10:23.754Z,4
2018-12-15T05:11:04.293Z,4
2018-12-15T05:11:44.849Z,4
2018-12-15T05:12:25.406Z,4
2018-12-15T05:13:05.961Z,4
2018-12-15T05:13:46.540Z,4
2018-12-15T05:14:27.102Z,4
2018-12-15T05:15:07.672Z,4
2018-12-15T05:15:48.238Z,4
2018-12-15T05:16:28.812Z,4
2018-12-15T05:17:09.370Z,4
2018-12-15T05:17:49.930Z,4
2018-12-15T05:18:30.490Z,4
2018-12-15T05:19:11.050Z,4
2018-12-15T05:19:51.617Z,4
2018-12-15T05:20:32.175Z,4
2018-12-15T05:21:12.729Z,4
2018-12-15T05:21:53.280Z,4
2018-12-15T05:22:33.831Z,4
2018-12-15T05:23:14.387Z,4
2018-12-15T05:23:54.941Z,4
2018-12-15T05:24:35.509Z,4
2018-12-15T05:25:16.066Z,4
2018-12-15T05:25:56.616Z,4
2018-12-15T05:26:37.167Z,4
2018-12-15T05:27:17.734Z,4
2018-12-15T05:27:58.279Z,4
2018-12-15T05:28:38.840Z,4
2018-12-15T05:29:19.405Z,4
2018-12-15T05:29:59.966Z,4
2018-12-15T05:30:40.549Z,4
2018-12-15T05:31:21.110Z,4
2018-12-15T05:32:01.685Z,4
2018-12-15T05:32:42.236Z,4
2018-12-15T05:33:22.805Z,4
2018-12-15T05:34:03.359Z,4
2018-12-15T05:34:43.960Z,4
2018-12-15T05:35:24.500Z,4
2018-12-15T05:36:05.064Z,4
2018-12-15T05:36:45.607Z,4
2018-12-15T05:37:26.171Z,4
2018-12-15T05:38:06.730Z,4
2018-12-15T05:38:47.280Z,4
2018-12-15T05:39:27.839Z,4
2018-12-15T05:40:08.384Z,4
2018-12-15T05:40:48.933Z,4
2018-12-15T05:41:29.477Z,4
2018-12-15T05:42:10.042Z,4
2018-12-15T05:42:50.604Z,4
2018-12-15T05:43:31.155Z,4
2018-12-15T05:44:11.703Z,4
2018-12-15T05:44:52.255Z,4
2018-12-15T05:45:32.812Z,4
2018-12-15T05:46:13.373Z,4
2018-12-15T05:46:53.929Z,4
2018-12-15T05:47:34.487Z,4
2018-12-15T05:48:15.046Z,4
2018-12-15T05:48:55.609Z,4
2018-12-15T05:49:36.171Z,4
2018-12-15T05:50:16.726Z,4
2018-12-15T05:50:57.290Z,4
2018-12-15T05:51:37.850Z,4
2018-12-15T05:52:18.403Z,4
2018-12-15T05:52:58.956Z,4
2018-12-15T05:53:39.506Z,4
2018-12-15T05:54:20.064Z,4
2018-12-15T05:55:00.628Z,4
2018-12-15T05:55:41.180Z,4
2018-12-15T05:56:21.759Z,4
2018-12-15T05:57:02.329Z,4
2018-12-15T05:57:42.898Z,4
2018-12-15T05:58:23.452Z,4
2018-12-15T05:59:04.007Z,4
2018-12-15T05:59:44.565Z,4
2018-12-15T06:00:25.111Z,4
2018-12-15T06:01:05.667Z,4
2018-12-15T06:01:46.238Z,4
2018-12-15T06:02:26.786Z,4
2018-12-15T06:03:07.323Z,4
2018-12-15T06:03:47.874Z,4
2018-12-15T06:04:28.429Z,4
2018-12-15T06:05:08.983Z,4
2018-12-15T06:05:49.539Z,4
2018-12-15T06:06:30.120Z,4
2018-12-15T06:07:10.680Z,4
2018-12-15T06:07:51.236Z,4
2018-12-15T06:08:31.796Z,4
2018-12-15T06:09:12.355Z,4
2018-12-15T06:09:52.918Z,4
2018-12-15T06:10:33.546Z,4
2018-12-15T06:11:14.110Z,4
2018-12-15T06:11:54.667Z,4
2018-12-15T06:12:35.265Z,4
2018-12-15T06:13:15.839Z,4
2018-12-15T06:13:56.405Z,4
2018-12-15T06:14:36.962Z,4
2018-12-15T06:15:17.519Z,4
2018-12-15T06:15:58.138Z,4
2018-12-15T06:16:38.640Z,4
2018-12-15T06:17:19.191Z,4
2018-12-15T06:17:59.734Z,4
2018-12-15T06:18:40.285Z,4
2018-12-15T06:19:20.833Z,4
2018-12-15T06:20:01.390Z,4
2018-12-15T06:20:41.947Z,4
2018-12-15T06:21:22.494Z,4
2018-12-15T06:22:03.056Z,4
2018-12-15T06:22:43.609Z,4
2018-12-15T06:23:24.162Z,4
2018-12-15T06:24:04.714Z,4
2018-12-15T06:24:45.293Z,4
2018-12-15T06:25:25.858Z,4
2018-12-15T06:26:06.418Z,4
2018-12-15T06:26:46.971Z,4
2018-12-15T06:27:27.531Z,4
2018-12-15T06:28:08.089Z,4
2018-12-15T06:28:48.640Z,4
2018-12-15T06:29:29.189Z,4
2018-12-15T06:30:09.748Z,4
2018-12-15T06:30:50.302Z,4
2018-12-15T06:31:30.867Z,4
2018-12-15T06:32:11.430Z,4
2018-12-15T06:32:51.997Z,4
2018-12-15T06:33:32.552Z,4
2018-12-15T06:34:13.133Z,4
2018-12-15T06:34:53.711Z,4
2018-12-15T06:35:34.285Z,4
2018-12-15T06:36:14.824Z,0
2018-12-15T06:36:55.371Z,0
2018-12-15T06:37:35.930Z,0
2018-12-15T06:38:16.518Z,0
2018-12-15T06:38:57.090Z,0
2018-12-15T06:39:37.638Z,0
2018-12-15T06:40:18.197Z,0
2018-12-15T06:40:58.774Z,0
2018-12-15T06:41:39.333Z,0
2018-12-15T06:42:19.893Z,4
2018-12-15T06:43:00.454Z,4
2018-12-15T06:43:41.020Z,4
2018-12-15T06:44:21.571Z,4
2018-12-15T06:45:02.167Z,4
2018-12-15T06:45:42.724Z,0
2018-12-15T06:46:23.289Z,0
2018-12-15T06:47:03.865Z,0
2018-12-15T06:47:44.425Z,0
2018-12-15T06:48:24.979Z,4
2018-12-15T06:49:05.553Z,4
2018-12-15T06:49:46.118Z,4
2018-12-15T06:50:26.670Z,4
2018-12-15T06:51:07.230Z,4
2018-12-15T06:51:47.810Z,4
2018-12-15T06:52:28.374Z,4
2018-12-15T06:53:08.932Z,4
2018-12-15T06:53:49.490Z,4
2018-12-15T06:54:30.053Z,4
2018-12-15T06:55:10.616Z,8
2018-12-15T06:55:51.170Z,8
2018-12-15T06:56:31.729Z,4
2018-12-15T06:57:12.278Z,8
2018-12-15T06:57:52.855Z,8
2018-12-15T06:58:33.417Z,8
2018-12-15T06:59:13.971Z,8
2018-12-15T06:59:54.521Z,8
2018-12-15T07:00:35.087Z,12
2018-12-15T07:01:15.644Z,8
2018-12-15T07:01:56.201Z,12
2018-12-15T07:02:36.756Z,12
2018-12-15T07:03:17.339Z,12
2018-12-15T07:03:57.891Z,16
2018-12-15T07:04:38.454Z,12
2018-12-15T07:05:19.026Z,16
2018-12-15T07:05:59.579Z,16
2018-12-15T07:06:40.156Z,20
2018-12-15T07:07:20.714Z,20
2018-12-15T07:08:01.325Z,20
2018-12-15T07:08:41.846Z,24
2018-12-15T07:09:22.407Z,24
2018-12-15T07:10:02.955Z,24
2018-12-15T07:10:43.539Z,24
2018-12-15T07:11:24.099Z,28
2018-12-15T07:12:04.644Z,28
2018-12-15T07:12:45.206Z,32
2018-12-15T07:13:25.763Z,32
2018-12-15T07:14:06.326Z,32
2018-12-15T07:14:46.886Z,32
2018-12-15T07:15:27.454Z,36
2018-12-15T07:16:08.001Z,40
2018-12-15T07:16:48.579Z,36
2018-12-15T07:17:29.136Z,40
2018-12-15T07:18:09.693Z,40
2018-12-15T07:18:50.241Z,44
2018-12-15T07:19:30.867Z,48
2018-12-15T07:20:11.412Z,48
2018-12-15T07:20:51.962Z,48
2018-12-15T07:21:32.521Z,52
2018-12-15T07:22:13.074Z,56
2018-12-15T07:22:53.630Z,56
2018-12-15T07:23:34.177Z,60
2018-12-15T07:24:14.744Z,60
2018-12-15T07:24:55.291Z,60
2018-12-15T07:25:35.844Z,68
2018-12-15T07:26:16.393Z,68
2018-12-15T07:26:56.950Z,68
2018-12-15T07:27:37.505Z,72
2018-12-15T07:28:18.072Z,72
2018-12-15T07:28:58.620Z,76
2018-12-15T07:29:39.191Z,80
2018-12-15T07:30:19.756Z,84
2018-12-15T07:31:00.318Z,88
2018-12-15T07:31:40.872Z,92
2018-12-15T07:32:21.424Z,96
2018-12-15T07:33:01.985Z,100
2018-12-15T07:33:42.537Z,104
2018-12-15T07:34:23.082Z,108
2018-12-15T07:35:03.642Z,112
2018-12-15T07:35:44.197Z,112
2018-12-15T07:36:24.755Z,120
2018-12-15T07:37:05.311Z,124
2018-12-15T07:37:45.876Z,124
2018-12-15T07:38:26.438Z,128
2018-12-15T07:39:06.997Z,136
2018-12-15T07:39:47.577Z,140
2018-12-15T07:40:28.133Z,144
2018-12-15T07:41:08.684Z,148
2018-12-15T07:41:49.236Z,152
2018-12-15T07:42:29.794Z,152
2018-12-15T07:43:10.351Z,160
2018-12-15T07:43:50.909Z,160
2018-12-15T07:44:31.568Z,164
2018-12-15T07:45:12.125Z,172
2018-12-15T07:45:52.686Z,176
2018-12-15T07:46:33.503Z,176
2018-12-15T07:47:14.316Z,184
2018-12-15T07:47:55.022Z,188
2018-12-15T07:48:36.126Z,196
2018-12-15T07:49:17.180Z,200
2018-12-15T07:49:58.408Z,208
2018-12-15T07:50:40.359Z,212
2018-12-15T07:51:23.871Z,216
2018-12-15T07:52:04.871Z,220
2018-12-15T07:52:46.772Z,224
2018-12-15T07:53:30.276Z,228
2018-12-15T07:54:11.318Z,236
2018-12-15T07:54:52.287Z,244
2018-12-15T07:55:33.733Z,244
2018-12-15T07:56:14.453Z,248
2018-12-15T07:56:55.120Z,252
2018-12-15T07:57:35.679Z,260
2018-12-15T07:58:16.290Z,264
2018-12-15T07:58:56.862Z,268
2018-12-15T07:59:37.394Z,272
2018-12-15T08:00:17.955Z,272
2018-12-15T08:00:58.499Z,276
2018-12-15T08:01:39.057Z,284
2018-12-15T08:02:19.600Z,292
2018-12-15T08:05:48.530Z,320
2018-12-15T08:06:29.077Z,324
2018-12-15T08:07:09.629Z,324
2018-12-15T08:07:50.316Z,324
2018-12-15T08:08:30.789Z,320
2018-12-15T08:09:11.370Z,308
2018-12-15T08:09:51.920Z,296
2018-12-15T08:10:32.465Z,288
2018-12-15T08:11:13.026Z,284
2018-12-15T08:11:53.592Z,280
2018-12-15T08:12:34.149Z,276
2018-12-15T08:13:14.702Z,272
2018-12-15T08:13:55.251Z,272
2018-12-15T08:14:35.852Z,272
2018-12-15T08:15:16.423Z,272
2018-12-15T08:15:56.982Z,276
2018-12-15T08:16:37.540Z,280
2018-12-15T08:17:18.096Z,284
2018-12-15T08:17:58.653Z,288
2018-12-15T08:18:39.206Z,292
2018-12-15T08:19:19.753Z,296
2018-12-15T08:20:00.319Z,304
2018-12-15T08:20:40.885Z,312
2018-12-15T08:21:21.489Z,316
2018-12-15T08:22:02.050Z,324
2018-12-15T08:22:42.623Z,332
2018-12-15T08:23:23.193Z,340
2018-12-15T08:24:03.748Z,348
2018-12-15T08:24:44.304Z,352
2018-12-15T08:25:24.870Z,360
2018-12-15T08:26:05.506Z,364
2018-12-15T08:26:46.058Z,372
2018-12-15T08:27:26.619Z,376
2018-12-15T08:28:07.160Z,384
2018-12-15T08:28:47.714Z,384
2018-12-15T08:29:28.264Z,388
2018-12-15T08:30:08.819Z,400
2018-12-15T08:30:49.387Z,412
2018-12-15T08:31:29.936Z,420
2018-12-15T08:32:10.515Z,432
2018-12-15T08:32:51.075Z,440
2018-12-15T08:33:31.628Z,456
2018-12-15T08:34:12.183Z,476
2018-12-15T08:34:52.748Z,492
2018-12-15T08:35:33.304Z,504
2018-12-15T08:36:13.862Z,512
2018-12-15T08:36:54.406Z,520
2018-12-15T08:37:34.959Z,528
2018-12-15T08:38:15.508Z,520
2018-12-15T08:38:56.112Z,516
2018-12-15T08:39:36.678Z,512
2018-12-15T08:40:17.227Z,508
2018-12-15T08:40:58.008Z,504
2018-12-15T08:41:38.572Z,508
2018-12-15T08:42:19.494Z,512
2018-12-15T08:43:00.039Z,516
2018-12-15T08:43:40.694Z,516
2018-12-15T08:44:21.183Z,520
2018-12-15T08:45:01.744Z,520
2018-12-15T08:45:42.293Z,524
2018-12-15T08:46:22.860Z,536
2018-12-15T08:47:03.645Z,544
2018-12-15T08:47:44.195Z,548
2018-12-15T08:48:24.750Z,556
2018-12-15T08:49:05.311Z,560
2018-12-15T08:49:45.870Z,568
2018-12-15T08:50:26.441Z,580
2018-12-15T08:51:07.000Z,592
2018-12-15T08:51:47.547Z,604
2018-12-15T08:52:28.087Z,616
2018-12-15T08:53:08.644Z,632
2018-12-15T08:53:49.191Z,644
2018-12-15T08:54:29.747Z,648
2018-12-15T08:55:10.308Z,660
2018-12-15T08:55:50.854Z,668
2018-12-15T08:56:31.418Z,672
2018-12-15T08:57:12.052Z,676
2018-12-15T08:57:52.622Z,676
2018-12-15T08:58:33.173Z,680
2018-12-15T08:59:13.893Z,676
2018-12-15T08:59:54.470Z,680
2018-12-15T09:00:35.031Z,680
2018-12-15T09:01:15.587Z,676
2018-12-15T09:01:56.137Z,680
2018-12-15T09:02:36.700Z,680
2018-12-15T09:03:17.248Z,688
2018-12-15T09:03:57.805Z,692
2018-12-15T09:04:38.370Z,696
2018-12-15T09:05:18.937Z,700
2018-12-15T09:05:59.488Z,700
2018-12-15T09:06:40.079Z,704
2018-12-15T09:07:20.631Z,712
2018-12-15T09:08:01.186Z,724
2018-12-15T09:08:41.744Z,732
2018-12-15T09:09:22.295Z,736
2018-12-15T09:10:02.865Z,744
2018-12-15T09:10:43.425Z,748
2018-12-15T09:11:23.988Z,752
2018-12-15T09:12:04.553Z,756
2018-12-15T09:12:45.121Z,764
2018-12-15T09:13:25.673Z,768
2018-12-15T09:14:06.235Z,772
2018-12-15T09:14:46.770Z,776
2018-12-15T09:15:27.362Z,780
2018-12-15T09:16:07.920Z,784
2018-12-15T09:16:48.484Z,788
2018-12-15T09:17:29.040Z,796
2018-12-15T09:18:09.829Z,792
2018-12-15T09:18:50.168Z,788
2018-12-15T09:19:30.724Z,788
2018-12-15T09:20:11.284Z,792
2018-12-15T09:20:51.838Z,792
2018-12-15T09:21:32.400Z,800
2018-12-15T09:22:12.949Z,804
2018-12-15T09:22:53.502Z,812
2018-12-15T09:23:34.075Z,816
2018-12-15T09:24:14.634Z,824
2018-12-15T09:24:55.658Z,820
2018-12-15T09:25:36.067Z,824
2018-12-15T09:26:16.717Z,832
2018-12-15T09:26:57.282Z,832
2018-12-15T09:27:39.117Z,836
2018-12-15T09:28:20.124Z,832
2018-12-15T09:29:02.720Z,836
2018-12-15T09:29:44.480Z,844
2018-12-15T09:30:26.066Z,856
2018-12-15T09:31:06.883Z,872
2018-12-15T09:31:47.574Z,880
2018-12-15T09:32:28.402Z,888
2018-12-15T09:33:10.226Z,896
2018-12-15T09:33:52.907Z,900
2018-12-15T09:34:34.021Z,904
2018-12-15T09:35:15.726Z,908
2018-12-15T09:35:56.281Z,912
2018-12-15T09:36:36.963Z,916
2018-12-15T09:37:17.712Z,924
2018-12-15T09:38:00.351Z,920
2018-12-15T09:38:41.124Z,920
2018-12-15T09:39:22.476Z,920
2018-12-15T09:40:03.297Z,916
2018-12-15T09:40:44.062Z,920
2018-12-15T09:41:24.965Z,924
2018-12-15T09:42:05.597Z,928
2018-12-15T09:42:46.156Z,932
2018-12-15T09:43:26.966Z,936
2018-12-15T09:44:07.587Z,940
2018-12-15T09:44:48.036Z,952
2018-12-15T09:45:28.652Z,968
2018-12-15T09:46:09.342Z,976
2018-12-15T09:46:50.025Z,992
2018-12-15T09:47:30.589Z,1000
2018-12-15T09:48:11.169Z,1004
2018-12-15T09:48:51.872Z,996
2018-12-15T09:49:32.486Z,996
2018-12-15T09:50:13.030Z,988
2018-12-15T09:50:53.590Z,992
2018-12-15T09:51:34.148Z,1000